createdAt,value
2023-01-05T00:00:08.600Z,101158.31
2023-01-05T00:02:40.903Z,101176.41
2023-01-05T00:05:07.504Z,101180.91
2023-01-05T00:07:33.834Z,101170.19
2023-01-05T00:10:00.162Z,101188.19
2023-01-05T00:12:45.132Z,101182.84
2023-01-05T00:15:30.005Z,101183.13
2023-01-05T00:18:14.623Z,101167.19
2023-01-05T00:20:59.455Z,101174.53
2023-01-05T00:23:25.828Z,101180.00
2023-01-05T00:25:52.171Z,101184.03
2023-01-05T00:28:18.525Z,101183.88
2023-01-05T00:30:46.770Z,101186.53
2023-01-05T00:33:17.285Z,101188.00
2023-01-05T00:35:43.857Z,101193.25
2023-01-05T00:38:10.556Z,101190.88
2023-01-05T00:40:38.470Z,101197.31
2023-01-05T00:43:04.891Z,101195.56
2023-01-05T00:45:31.371Z,101196.63
2023-01-05T00:47:57.830Z,101176.69
2023-01-05T00:50:24.287Z,101193.47
2023-01-05T00:52:50.877Z,101195.59
2023-01-05T00:55:17.528Z,101198.50
2023-01-05T00:57:43.981Z,101211.13
2023-01-05T01:00:15.039Z,101205.84
2023-01-05T01:02:41.455Z,101208.63
2023-01-05T01:05:08.197Z,101208.94
2023-01-05T01:07:34.564Z,101185.59
2023-01-05T01:10:00.900Z,101201.94
2023-01-05T01:12:27.267Z,101205.75
2023-01-05T01:14:53.670Z,101204.22
2023-01-05T01:17:20.125Z,101193.63
2023-01-05T01:19:46.576Z,101192.66
2023-01-05T01:22:13.904Z,101190.84
2023-01-05T01:24:40.457Z,101197.25
2023-01-05T01:27:06.921Z,101199.84
2023-01-05T01:29:33.415Z,101197.25
2023-01-05T01:31:59.936Z,101202.44
2023-01-05T01:34:26.546Z,101207.09
2023-01-05T01:36:55.167Z,101205.19
2023-01-05T01:39:24.106Z,101219.44
2023-01-05T01:41:55.911Z,101220.50
2023-01-05T01:44:53.491Z,101221.47
2023-01-05T01:47:29.767Z,101226.72
2023-01-05T01:49:58.849Z,101221.47
2023-01-05T01:52:29.290Z,101239.03
2023-01-05T01:54:56.949Z,101231.88
2023-01-05T01:57:26.470Z,101237.97
2023-01-05T01:59:53.006Z,101231.13
2023-01-05T02:02:21.653Z,101226.53
2023-01-05T02:04:48.898Z,101237.91
2023-01-05T02:07:16.196Z,101238.56
2023-01-05T02:09:43.814Z,101251.28
2023-01-05T02:12:27.386Z,101251.38
2023-01-05T02:15:09.192Z,101244.22
2023-01-05T02:18:08.691Z,101249.00
2023-01-05T02:21:08.031Z,101246.50
2023-01-05T02:24:18.015Z,101258.19
2023-01-05T02:27:15.252Z,101251.97
2023-01-05T02:30:16.284Z,101251.97
2023-01-05T02:33:07.995Z,101252.34
2023-01-05T02:35:51.086Z,101244.53
2023-01-05T02:38:40.522Z,101255.31
2023-01-05T02:41:20.644Z,101257.78
2023-01-05T02:43:47.117Z,101256.94
2023-01-05T02:46:13.491Z,101273.41
2023-01-05T02:48:41.889Z,101275.78
2023-01-05T02:51:16.176Z,101257.13
2023-01-05T02:54:09.448Z,101246.50
2023-01-05T02:56:43.858Z,101256.56
2023-01-05T02:59:20.632Z,101255.72
2023-01-05T03:01:55.066Z,101262.00
2023-01-05T03:04:32.798Z,101248.63
2023-01-05T03:07:05.806Z,101267.44
2023-01-05T03:09:37.921Z,101280.75
2023-01-05T03:12:34.973Z,101266.56
2023-01-05T03:15:20.799Z,101261.31
2023-01-05T03:17:51.079Z,101267.53
2023-01-05T03:20:23.079Z,101268.59
2023-01-05T03:23:09.795Z,101261.88
2023-01-05T03:25:58.348Z,101260.34
2023-01-05T03:28:56.200Z,101270.09
2023-01-05T03:31:59.210Z,101274.78
2023-01-05T03:34:59.685Z,101269.41
2023-01-05T03:37:35.377Z,101267.50
2023-01-05T03:40:04.944Z,101273.72
2023-01-05T03:42:35.272Z,101280.97
2023-01-05T03:45:02.341Z,101281.09
2023-01-05T03:47:28.746Z,101277.22
2023-01-05T03:49:56.090Z,101277.63
2023-01-05T03:52:22.684Z,101276.84
2023-01-05T03:54:49.727Z,101282.78
2023-01-05T03:57:16.122Z,101289.09
2023-01-05T03:59:43.754Z,101283.06
2023-01-05T04:02:10.226Z,101294.13
2023-01-05T04:04:36.884Z,101288.09
2023-01-05T04:07:07.340Z,101289.81
2023-01-05T04:09:34.522Z,101292.78
2023-01-05T04:12:01.756Z,101293.06
2023-01-05T04:14:32.756Z,101291.50
2023-01-05T04:16:59.680Z,101295.03
2023-01-05T04:19:26.931Z,101301.16
2023-01-05T04:21:54.832Z,101294.75
2023-01-05T04:24:23.043Z,101289.50
2023-01-05T04:26:49.657Z,101298.41
2023-01-05T04:29:18.725Z,101298.47
2023-01-05T04:31:48.533Z,101294.84
2023-01-05T04:34:14.886Z,101301.16
2023-01-05T04:36:43.040Z,101308.13
2023-01-05T04:39:14.486Z,101301.94
2023-01-05T04:41:41.716Z,101304.59
2023-01-05T04:44:08.312Z,101297.44
2023-01-05T04:46:35.307Z,101300.19
2023-01-05T04:49:03.068Z,101311.78
2023-01-05T04:51:29.567Z,101307.16
2023-01-05T04:53:55.980Z,101312.50
2023-01-05T04:56:24.285Z,101308.13
2023-01-05T04:58:50.696Z,101293.97
2023-01-05T05:01:18.474Z,101296.78
2023-01-05T05:03:49.791Z,101301.06
2023-01-05T05:06:19.290Z,101297.63
2023-01-05T05:08:47.762Z,101304.88
2023-01-05T05:11:14.573Z,101302.88
2023-01-05T05:13:41.601Z,101302.78
2023-01-05T05:16:08.412Z,101321.50
2023-01-05T05:18:35.166Z,101313.56
2023-01-05T05:21:03.468Z,101326.19
2023-01-05T05:23:33.190Z,101336.38
2023-01-05T05:26:00.143Z,101321.53
2023-01-05T05:28:28.253Z,101329.56
2023-01-05T05:30:56.172Z,101335.47
2023-01-05T05:33:23.949Z,101333.19
2023-01-05T05:35:50.914Z,101345.91
2023-01-05T05:38:17.262Z,101349.22
2023-01-05T05:40:43.614Z,101344.94
2023-01-05T05:43:10.095Z,101354.00
2023-01-05T05:45:36.445Z,101355.47
2023-01-05T05:48:02.925Z,101357.25
2023-01-05T05:50:29.340Z,101361.66
2023-01-05T05:52:55.661Z,101365.47
2023-01-05T05:55:22.056Z,101363.66
2023-01-05T05:57:48.426Z,101361.41
2023-01-05T06:00:15.276Z,101368.56
2023-01-05T06:02:41.710Z,101372.28
2023-01-05T06:05:08.764Z,101375.13
2023-01-05T06:07:35.134Z,101381.59
2023-01-05T06:10:01.457Z,101384.25
2023-01-05T06:12:27.930Z,101382.44
2023-01-05T06:14:54.317Z,101387.78
2023-01-05T06:17:20.651Z,101388.66
2023-01-05T06:19:47.002Z,101392.03
2023-01-05T06:22:13.362Z,101391.44
2023-01-05T06:24:39.909Z,101388.75
2023-01-05T06:27:06.272Z,101397.81
2023-01-05T06:29:32.603Z,101397.88
2023-01-05T06:31:58.984Z,101397.69
2023-01-05T06:34:25.345Z,101397.88
2023-01-05T06:36:51.705Z,101404.06
2023-01-05T06:39:18.118Z,101396.25
2023-01-05T06:41:44.614Z,101416.75
2023-01-05T06:44:11.188Z,101411.50
2023-01-05T06:46:37.569Z,101408.50
2023-01-05T06:49:03.961Z,101410.19
2023-01-05T06:51:30.431Z,101414.59
2023-01-05T06:53:56.842Z,101430.00
2023-01-05T06:56:23.262Z,101412.16
2023-01-05T06:58:49.611Z,101422.59
2023-01-05T07:01:16.065Z,101421.75
2023-01-05T07:03:42.522Z,101424.66
2023-01-05T07:06:14.609Z,101429.94
2023-01-05T07:08:41.802Z,101434.56
2023-01-05T07:11:08.323Z,101439.78
2023-01-05T07:13:34.819Z,101435.47
2023-01-05T07:16:01.233Z,101445.19
2023-01-05T07:18:27.644Z,101439.78
2023-01-05T07:20:54.036Z,101440.72
2023-01-05T07:23:20.438Z,101449.69
2023-01-05T07:25:46.803Z,101451.25
2023-01-05T07:28:13.785Z,101452.19
2023-01-05T07:30:40.140Z,101450.28
2023-01-05T07:33:06.587Z,101464.19
2023-01-05T07:35:33.057Z,101462.00
2023-01-05T07:37:59.415Z,101473.38
2023-01-05T07:40:25.864Z,101478.91
2023-01-05T07:42:53.346Z,101466.41
2023-01-05T07:45:20.918Z,101472.63
2023-01-05T07:47:47.286Z,101467.28
2023-01-05T07:50:13.729Z,101467.09
2023-01-05T07:52:40.137Z,101482.28
2023-01-05T07:55:06.977Z,101488.38
2023-01-05T07:57:33.417Z,101485.72
2023-01-05T07:59:59.793Z,101484.78
2023-01-05T08:02:32.228Z,101488.25
2023-01-05T08:05:02.202Z,101497.81
2023-01-05T08:07:28.571Z,101497.72
2023-01-05T08:10:13.658Z,101497.72
2023-01-05T08:13:00.037Z,101509.53
2023-01-05T08:15:26.602Z,101503.31
2023-01-05T08:17:52.956Z,101509.44
2023-01-05T08:20:19.433Z,101512.75
2023-01-05T08:22:51.036Z,101508.25
2023-01-05T08:25:17.579Z,101519.97
2023-01-05T08:27:44.085Z,101510.00
2023-01-05T08:30:13.328Z,101511.56
2023-01-05T08:32:40.822Z,101517.78
2023-01-05T08:35:07.560Z,101516.03
2023-01-05T08:37:33.933Z,101522.09
2023-01-05T08:40:00.355Z,101526.56
2023-01-05T08:42:26.725Z,101530.28
2023-01-05T08:44:53.121Z,101523.97
2023-01-05T08:47:20.161Z,101529.25
2023-01-05T08:49:47.301Z,101527.25
2023-01-05T08:52:13.693Z,101541.22
2023-01-05T08:54:40.085Z,101545.72
2023-01-05T08:57:06.461Z,101535.81
2023-01-05T08:59:32.840Z,101545.66
2023-01-05T09:01:59.543Z,101553.56
2023-01-05T09:04:27.576Z,101549.72
2023-01-05T09:06:54.365Z,101551.50
2023-01-05T09:09:24.172Z,101552.41
2023-01-05T09:11:50.756Z,101555.84
2023-01-05T09:14:17.427Z,101561.09
2023-01-05T09:19:30.468Z,101574.28
2023-01-05T09:21:56.921Z,101582.59
2023-01-05T09:24:23.483Z,101574.22
2023-01-05T09:26:50.426Z,101577.63
2023-01-05T09:29:16.965Z,101590.09
2023-01-05T09:31:43.870Z,101589.25
2023-01-05T09:34:10.955Z,101586.31
2023-01-05T09:36:38.870Z,101593.38
2023-01-05T09:39:06.276Z,101595.06
2023-01-05T09:41:47.387Z,101591.34
2023-01-05T09:44:35.223Z,101601.25
2023-01-05T09:47:15.205Z,101608.25
2023-01-05T09:49:42.070Z,101607.28
2023-01-05T09:52:10.558Z,101610.06
2023-01-05T09:54:38.638Z,101607.28
2023-01-05T09:57:09.483Z,101615.06
2023-01-05T09:59:40.578Z,101618.59
2023-01-05T10:02:19.135Z,101614.81
2023-01-05T10:04:47.578Z,101625.78
2023-01-05T10:07:27.002Z,101620.19
2023-01-05T10:09:58.098Z,101625.34
2023-01-05T10:12:53.259Z,101622.84
2023-01-05T10:15:21.564Z,101626.25
2023-01-05T10:17:48.388Z,101630.88
2023-01-05T10:20:28.028Z,101630.94
2023-01-05T10:23:18.511Z,101636.22
2023-01-05T10:25:54.007Z,101627.00
2023-01-05T10:28:51.208Z,101638.66
2023-01-05T10:31:47.353Z,101640.22
2023-01-05T10:34:22.641Z,101635.81
2023-01-05T10:37:10.478Z,101639.38
2023-01-05T10:40:00.750Z,101646.88
2023-01-05T10:42:45.472Z,101641.63
2023-01-05T10:45:15.291Z,101639.56
2023-01-05T10:47:44.939Z,101641.50
2023-01-05T10:50:40.553Z,101649.03
2023-01-05T10:53:14.675Z,101650.44
2023-01-05T10:55:51.337Z,101652.84
2023-01-05T10:58:22.863Z,101646.97
2023-01-05T11:00:50.119Z,101654.03
2023-01-05T11:03:18.836Z,101658.09
2023-01-05T11:05:48.068Z,101651.81
2023-01-05T11:08:21.086Z,101660.72
2023-01-05T11:10:57.791Z,101655.09
2023-01-05T11:13:42.463Z,101656.28
2023-01-05T11:16:21.317Z,101661.38
2023-01-05T11:18:52.273Z,101665.03
2023-01-05T11:21:41.419Z,101661.13
2023-01-05T11:24:25.525Z,101659.25
2023-01-05T11:26:56.534Z,101662.56
2023-01-05T11:29:22.945Z,101652.03
2023-01-05T11:32:01.395Z,101659.09
2023-01-05T11:34:49.054Z,101657.91
2023-01-05T11:37:25.196Z,101661.63
2023-01-05T11:40:02.836Z,101674.84
2023-01-05T11:42:32.856Z,101666.72
2023-01-05T11:45:07.417Z,101662.22
2023-01-05T11:47:43.508Z,101662.13
2023-01-05T11:50:13.629Z,101659.38
2023-01-05T11:52:49.872Z,101649.78
2023-01-05T11:55:33.547Z,101662.13
2023-01-05T11:58:17.651Z,101656.03
2023-01-05T12:01:10.050Z,101649.78
2023-01-05T12:03:59.266Z,101657.06
2023-01-05T12:06:34.481Z,101652.06
2023-01-05T12:09:19.736Z,101652.72
2023-01-05T12:11:58.773Z,101653.59
2023-01-05T12:14:56.002Z,101657.44
2023-01-05T12:18:03.770Z,101656.28
2023-01-05T12:20:42.311Z,101654.28
2023-01-05T12:23:19.290Z,101659.38
2023-01-05T12:26:13.568Z,101656.78
2023-01-05T12:35:44.895Z,101677.00
2023-01-05T12:38:33.130Z,101671.53
2023-01-05T12:41:23.248Z,101675.91
2023-01-05T12:44:14.268Z,101670.34
2023-01-05T12:47:05.354Z,101683.63
2023-01-05T12:50:05.074Z,101677.09
2023-01-05T12:52:36.773Z,101668.03
2023-01-05T12:55:18.084Z,101674.94
2023-01-05T12:57:54.066Z,101668.44
2023-01-05T13:00:21.401Z,101673.00
2023-01-05T13:03:01.809Z,101670.06
2023-01-05T13:05:43.079Z,101665.50
2023-01-05T13:08:29.255Z,101671.72
2023-01-05T13:11:16.136Z,101669.72
2023-01-05T13:13:52.701Z,101671.88
2023-01-05T13:16:23.415Z,101673.13
2023-01-05T13:19:02.209Z,101672.53
2023-01-05T13:21:29.253Z,101674.06
2023-01-05T13:24:01.614Z,101675.28
2023-01-05T13:26:35.769Z,101672.41
2023-01-05T13:29:04.461Z,101681.22
2023-01-05T13:31:45.003Z,101673.63
2023-01-05T13:34:25.603Z,101679.94
2023-01-05T13:37:30.499Z,101682.78
2023-01-05T13:40:18.433Z,101680.56
2023-01-05T13:42:47.790Z,101685.03
2023-01-05T13:45:41.400Z,101686.66
2023-01-05T13:48:44.561Z,101683.22
2023-01-05T13:51:19.772Z,101685.91
2023-01-05T13:53:48.245Z,101692.31
2023-01-05T13:56:19.641Z,101692.13
2023-01-05T13:58:50.450Z,101688.41
2023-01-05T14:01:34.192Z,101694.69
2023-01-05T14:04:01.315Z,101691.16
2023-01-05T14:06:34.497Z,101693.59
2023-01-05T14:09:14.813Z,101693.84
2023-01-05T14:12:16.016Z,101692.47
2023-01-05T14:15:00.487Z,101698.75
2023-01-05T14:17:50.670Z,101695.16
2023-01-05T14:20:31.189Z,101700.25
2023-01-05T14:22:58.303Z,101689.88
2023-01-05T14:25:50.157Z,101691.69
2023-01-05T14:28:30.533Z,101696.44
2023-01-05T14:31:16.157Z,101698.16
2023-01-05T14:33:57.713Z,101696.38
2023-01-05T14:36:52.841Z,101699.31
2023-01-05T14:39:20.048Z,101687.69
2023-01-05T14:42:16.154Z,101695.91
2023-01-05T14:44:49.491Z,101698.41
2023-01-05T14:47:17.604Z,101701.19
2023-01-05T14:49:55.677Z,101704.13
2023-01-05T14:52:53.158Z,101701.72
2023-01-05T14:55:41.964Z,101701.09
2023-01-05T14:58:35.624Z,101711.91
2023-01-05T15:01:17.322Z,101709.41
2023-01-05T15:04:08.401Z,101712.41
2023-01-05T15:06:34.690Z,101711.28
2023-01-05T15:09:25.612Z,101716.47
2023-01-05T15:12:13.496Z,101710.50
2023-01-05T15:14:45.855Z,101713.53
2023-01-05T15:17:50.259Z,101718.72
2023-01-05T15:20:46.064Z,101711.72
2023-01-05T15:26:27.938Z,101711.16
2023-01-05T15:29:28.292Z,101703.28
2023-01-05T15:32:03.141Z,101705.97
2023-01-05T15:34:38.104Z,101704.94
2023-01-05T15:37:28.965Z,101706.59
2023-01-05T15:39:57.115Z,101703.91
2023-01-05T15:42:28.494Z,101691.63
2023-01-05T15:44:56.827Z,101692.84
2023-01-05T15:47:26.946Z,101695.09
2023-01-05T15:49:58.464Z,101694.22
2023-01-05T15:52:32.236Z,101698.88
2023-01-05T15:55:11.768Z,101699.66
2023-01-05T15:57:38.090Z,101706.03
2023-01-05T16:00:18.243Z,101704.31
2023-01-05T16:02:44.933Z,101714.63
2023-01-05T16:05:23.143Z,101708.25
2023-01-05T16:08:18.479Z,101706.59
2023-01-05T16:10:53.630Z,101703.03
2023-01-05T16:13:25.923Z,101695.94
2023-01-05T16:15:55.707Z,101709.13
2023-01-05T16:18:27.132Z,101714.63
2023-01-05T16:20:55.864Z,101711.47
2023-01-05T16:23:38.968Z,101700.94
2023-01-05T16:26:06.503Z,101705.44
2023-01-05T16:28:32.925Z,101712.13
2023-01-05T16:30:59.333Z,101715.78
2023-01-05T16:33:38.384Z,101717.59
2023-01-05T16:36:22.074Z,101712.06
2023-01-05T16:38:48.917Z,101709.38
2023-01-05T16:41:24.138Z,101705.25
2023-01-05T16:44:03.064Z,101708.78
2023-01-05T16:46:33.238Z,101699.09
2023-01-05T16:49:33.864Z,101703.59
2023-01-05T16:52:01.132Z,101703.91
2023-01-05T16:54:36.852Z,101709.81
2023-01-05T16:57:31.853Z,101706.28
2023-01-05T16:59:58.430Z,101694.91
2023-01-05T17:02:45.346Z,101696.31
2023-01-05T17:05:15.416Z,101697.69
2023-01-05T17:07:43.887Z,101693.88
2023-01-05T17:10:20.853Z,101679.03
2023-01-05T17:13:05.577Z,101686.63
2023-01-05T17:15:36.192Z,101687.78
2023-01-05T17:20:54.999Z,101681.34
2023-01-05T17:23:23.639Z,101686.00
2023-01-05T17:28:24.413Z,101681.50
2023-01-05T17:30:51.731Z,101673.91
2023-01-05T17:33:18.429Z,101667.53
2023-01-05T17:38:14.804Z,101671.38
2023-01-05T17:40:41.483Z,101663.50
2023-01-05T17:43:07.910Z,101673.19
2023-01-05T17:45:37.740Z,101665.88
2023-01-05T17:48:04.271Z,101664.31
2023-01-05T17:53:04.592Z,101665.41
2023-01-05T17:55:31.625Z,101661.69
2023-01-05T17:57:59.490Z,101669.72
2023-01-05T18:00:27.605Z,101665.94
2023-01-05T18:02:54.809Z,101667.78
2023-01-05T18:05:21.802Z,101676.72
2023-01-05T18:07:49.151Z,101671.31
2023-01-05T18:10:19.238Z,101673.81
2023-01-05T18:12:45.763Z,101679.16
2023-01-05T18:15:13.192Z,101676.47
2023-01-05T18:17:40.316Z,101658.84
2023-01-05T18:20:07.393Z,101659.88
2023-01-05T18:22:33.920Z,101658.09
2023-01-05T18:25:00.353Z,101663.88
2023-01-05T18:27:26.684Z,101662.19
2023-01-05T18:29:56.596Z,101648.81
2023-01-05T18:32:23.708Z,101654.47
2023-01-05T18:34:50.065Z,101647.47
2023-01-05T18:37:23.331Z,101648.16
2023-01-05T18:39:49.917Z,101648.25
2023-01-05T18:42:16.381Z,101643.69
2023-01-05T18:44:42.720Z,101642.13
2023-01-05T18:47:09.194Z,101645.59
2023-01-05T18:49:35.631Z,101642.28
2023-01-05T18:52:05.257Z,101635.44
2023-01-05T18:54:31.687Z,101634.28
2023-01-05T18:56:58.062Z,101630.75
2023-01-05T18:59:25.401Z,101633.78
2023-01-05T19:01:51.872Z,101630.63
2023-01-05T19:04:18.599Z,101634.03
2023-01-05T19:06:44.970Z,101629.28
2023-01-05T19:09:12.955Z,101627.53
2023-01-05T19:11:44.370Z,101633.59
2023-01-05T19:14:10.904Z,101629.28
2023-01-05T19:16:37.535Z,101627.47
2023-01-05T19:19:08.316Z,101632.41
2023-01-05T19:21:37.647Z,101623.84
2023-01-05T19:24:06.489Z,101625.59
2023-01-05T19:26:33.833Z,101616.69
2023-01-05T19:29:02.331Z,101617.72
2023-01-05T19:31:29.745Z,101623.69
2023-01-05T19:33:58.843Z,101614.97
2023-01-05T19:36:32.215Z,101614.03
2023-01-05T19:39:03.906Z,101616.78
2023-01-05T19:41:30.897Z,101614.72
2023-01-05T19:43:57.774Z,101612.91
2023-01-05T19:46:27.038Z,101618.72
2023-01-05T19:48:54.133Z,101607.28
2023-01-05T19:51:23.268Z,101608.88
2023-01-05T19:53:57.869Z,101606.97
2023-01-05T19:56:31.212Z,101607.91
2023-01-05T19:59:00.062Z,101599.56
2023-01-05T20:01:28.573Z,101603.00
2023-01-05T20:03:55.877Z,101610.31
2023-01-05T20:06:23.504Z,101603.78
2023-01-05T20:08:54.617Z,101604.72
2023-01-05T20:11:39.417Z,101605.69
2023-01-05T20:14:13.511Z,101601.97
2023-01-05T20:16:41.548Z,101603.69
2023-01-05T20:19:08.974Z,101601.91
2023-01-05T20:21:35.433Z,101598.19
2023-01-05T20:24:03.264Z,101601.91
2023-01-05T20:26:31.135Z,101605.25
2023-01-05T20:29:01.262Z,101604.41
2023-01-05T20:31:34.813Z,101594.22
2023-01-05T20:34:05.622Z,101591.69
2023-01-05T20:36:32.058Z,101592.03
2023-01-05T20:38:59.064Z,101591.91
2023-01-05T20:41:29.038Z,101588.97
2023-01-05T20:43:56.575Z,101583.34
2023-01-05T20:46:30.157Z,101591.38
2023-01-05T20:48:57.218Z,101591.31
2023-01-05T20:51:24.595Z,101590.19
2023-01-05T20:53:52.794Z,101588.28
2023-01-05T20:56:26.530Z,101583.88
2023-01-05T20:58:54.076Z,101588.91
2023-01-05T21:01:21.961Z,101593.28
2023-01-05T21:03:49.947Z,101593.03
2023-01-05T21:06:17.742Z,101594.16
2023-01-05T21:08:49.053Z,101595.03
2023-01-05T21:11:17.541Z,101592.44
2023-01-05T21:13:49.370Z,101594.16
2023-01-05T21:16:19.496Z,101592.09
2023-01-05T21:18:46.688Z,101587.84
2023-01-05T21:21:18.686Z,101584.31
2023-01-05T21:23:47.287Z,101588.53
2023-01-05T21:26:14.692Z,101579.63
2023-01-05T21:28:43.565Z,101576.16
2023-01-05T21:31:14.195Z,101581.44
2023-01-05T21:33:41.246Z,101579.91
2023-01-05T21:36:12.501Z,101578.84
2023-01-05T21:39:02.298Z,101580.66
2023-01-05T21:41:44.042Z,101575.50
2023-01-05T21:44:12.195Z,101577.22
2023-01-05T21:46:39.761Z,101595.38
2023-01-05T21:49:07.626Z,101593.47
2023-01-05T21:51:52.412Z,101606.47
2023-01-05T21:54:38.152Z,101603.28
2023-01-05T21:57:04.584Z,101598.53
2023-01-05T21:59:31.202Z,101602.47
2023-01-05T22:01:57.577Z,101592.63
2023-01-05T22:04:23.993Z,101587.72
2023-01-05T22:06:50.991Z,101590.72
2023-01-05T22:09:17.999Z,101590.19
2023-01-05T22:11:44.536Z,101581.22
2023-01-05T22:14:11.166Z,101583.09
2023-01-05T22:16:37.636Z,101585.94
2023-01-05T22:19:04.167Z,101564.63
2023-01-05T22:21:31.279Z,101568.34
2023-01-05T22:23:58.016Z,101571.97
2023-01-05T22:26:24.819Z,101564.88
2023-01-05T22:28:51.906Z,101568.34
2023-01-05T22:31:24.412Z,101562.47
2023-01-05T22:33:53.063Z,101550.91
2023-01-05T22:36:20.939Z,101549.00
2023-01-05T22:38:49.087Z,101541.09
2023-01-05T22:41:19.084Z,101544.38
2023-01-05T22:43:46.138Z,101531.00
2023-01-05T22:46:24.559Z,101542.13
2023-01-05T22:48:53.036Z,101541.59
2023-01-05T22:51:25.862Z,101544.44
2023-01-05T22:53:52.633Z,101547.84
2023-01-05T22:56:21.103Z,101546.28
2023-01-05T22:58:48.363Z,101536.34
2023-01-05T23:01:29.370Z,101530.31
2023-01-05T23:03:58.363Z,101534.72
2023-01-05T23:06:26.101Z,101533.59
2023-01-05T23:08:53.631Z,101529.88
2023-01-05T23:11:22.729Z,101535.16
2023-01-05T23:13:50.641Z,101530.06
2023-01-05T23:16:17.454Z,101536.88
2023-01-05T23:18:44.695Z,101544.13
2023-01-05T23:21:12.981Z,101542.41
2023-01-05T23:23:40.250Z,101534.13
2023-01-05T23:26:08.947Z,101543.88
2023-01-05T23:28:35.624Z,101533.88
2023-01-05T23:31:02.050Z,101535.94
2023-01-05T23:33:31.322Z,101530.31
2023-01-05T23:35:57.730Z,101533.72
2023-01-05T23:38:25.248Z,101529.56
2023-01-05T23:40:55.539Z,101525.13
2023-01-05T23:43:28.317Z,101524.09
2023-01-05T23:46:04.091Z,101522.31
2023-01-05T23:48:30.669Z,101522.31
2023-01-05T23:50:58.005Z,101512.53
2023-01-05T23:53:25.666Z,101502.06
2023-01-05T23:55:52.653Z,101505.88
2023-01-05T23:58:19.049Z,101507.88
